createdAt,value
2018-07-21T00:01:20.520Z,7.57
2018-07-21T00:03:49.033Z,6.50
2018-07-21T00:06:17.285Z,7.40
2018-07-21T00:08:45.482Z,10.00
2018-07-21T00:11:14.080Z,7.20
2018-07-21T00:13:42.813Z,6.87
2018-07-21T00:16:11.002Z,8.20
2018-07-21T00:18:39.219Z,8.50
2018-07-21T00:21:08.592Z,8.73
2018-07-21T00:23:37.740Z,9.90
2018-07-21T00:26:05.924Z,7.83
2018-07-21T00:28:34.081Z,8.37
2018-07-21T00:31:02.752Z,7.47
2018-07-21T00:33:30.912Z,7.50
2018-07-21T00:35:59.952Z,7.10
2018-07-21T00:38:28.124Z,7.53
2018-07-21T00:40:56.309Z,7.93
2018-07-21T00:43:24.504Z,7.80
2018-07-21T00:45:53.796Z,7.57
2018-07-21T00:48:21.964Z,13.43
2018-07-21T00:50:50.096Z,8.53
2018-07-21T00:53:19.232Z,8.07
2018-07-21T00:55:47.416Z,11.97
2018-07-21T00:58:15.588Z,6.70
2018-07-21T01:00:45.504Z,6.77
2018-07-21T01:03:14.484Z,6.37
2018-07-21T01:05:48.961Z,6.93
2018-07-21T01:08:17.132Z,10.00
2018-07-21T01:10:45.892Z,6.87
2018-07-21T01:13:14.078Z,6.80
2018-07-21T01:15:42.244Z,7.00
2018-07-21T01:18:10.593Z,7.37
2018-07-21T01:20:40.184Z,7.13
2018-07-21T01:23:08.300Z,7.13
2018-07-21T01:25:36.804Z,7.20
2018-07-21T01:28:04.960Z,7.00
2018-07-21T01:30:34.580Z,6.50
2018-07-21T01:33:04.732Z,7.30
2018-07-21T01:35:33.431Z,7.00
2018-07-21T01:38:02.635Z,7.17
2018-07-21T01:40:30.800Z,6.57
2018-07-21T01:42:59.325Z,7.60
2018-07-21T01:45:27.704Z,7.20
2018-07-21T01:47:55.854Z,9.17
2018-07-21T01:50:24.905Z,7.07
2018-07-21T01:52:53.784Z,6.90
2018-07-21T01:55:22.852Z,7.00
2018-07-21T01:57:51.001Z,7.60
2018-07-21T02:00:19.151Z,8.17
2018-07-21T02:02:47.605Z,8.40
2018-07-21T02:05:16.642Z,7.47
2018-07-21T02:07:45.313Z,7.30
2018-07-21T02:10:13.917Z,6.80
2018-07-21T02:12:42.079Z,7.03
2018-07-21T02:15:10.223Z,7.10
2018-07-21T02:17:38.340Z,8.63
2018-07-21T02:20:06.616Z,7.40
2018-07-21T02:22:34.798Z,6.37
2018-07-21T02:25:03.380Z,6.87
2018-07-21T02:27:32.191Z,7.87
2018-07-21T02:30:00.398Z,7.70
2018-07-21T02:32:28.287Z,7.50
2018-07-21T02:34:56.486Z,6.90
2018-07-21T02:37:24.661Z,7.20
2018-07-21T02:39:52.839Z,8.10
2018-07-21T02:42:21.383Z,8.60
2018-07-21T02:44:49.577Z,8.53
2018-07-21T02:47:18.263Z,10.50
2018-07-21T02:49:46.441Z,7.87
2018-07-21T02:52:15.077Z,10.20
2018-07-21T02:54:43.225Z,8.27
2018-07-21T02:57:11.379Z,9.83
2018-07-21T02:59:40.592Z,8.23
2018-07-21T03:02:09.997Z,9.83
2018-07-21T03:04:38.141Z,8.07
2018-07-21T03:07:07.485Z,9.30
2018-07-21T03:09:35.656Z,7.77
2018-07-21T03:12:04.785Z,9.20
2018-07-21T03:14:32.975Z,8.97
2018-07-21T03:17:01.634Z,8.00
2018-07-21T03:19:29.794Z,7.90
2018-07-21T03:21:58.020Z,10.27
2018-07-21T03:24:26.137Z,9.37
2018-07-21T03:26:54.832Z,9.07
2018-07-21T03:29:24.209Z,8.40
2018-07-21T03:31:53.197Z,8.67
2018-07-21T03:34:21.368Z,7.77
2018-07-21T03:36:49.904Z,9.03
2018-07-21T03:39:18.136Z,9.00
2018-07-21T03:41:46.324Z,9.03
2018-07-21T03:44:14.484Z,8.40
2018-07-21T03:46:43.118Z,8.00
2018-07-21T03:49:11.257Z,8.03
2018-07-21T03:51:40.786Z,8.17
2018-07-21T03:54:08.918Z,8.27
2018-07-21T03:56:37.367Z,7.70
2018-07-21T03:59:05.867Z,7.97
2018-07-21T04:01:34.028Z,8.57
2018-07-21T04:04:02.142Z,9.33
2018-07-21T04:06:30.304Z,8.53
2018-07-21T04:08:59.492Z,10.10
2018-07-21T04:11:28.165Z,11.63
2018-07-21T04:13:56.676Z,13.10
2018-07-21T04:16:26.486Z,9.17
2018-07-21T04:18:55.467Z,8.90
2018-07-21T04:21:24.331Z,11.73
2018-07-21T04:23:53.021Z,10.53
2018-07-21T04:26:21.657Z,13.47
2018-07-21T04:28:50.176Z,9.70
2018-07-21T04:31:18.350Z,9.53
2018-07-21T04:33:46.477Z,10.50
2018-07-21T04:36:14.636Z,9.40
2018-07-21T04:38:43.336Z,9.43
2018-07-21T04:41:11.980Z,9.27
2018-07-21T04:43:41.099Z,10.30
2018-07-21T04:46:09.225Z,9.40
2018-07-21T04:48:38.000Z,8.60
2018-07-21T04:51:07.498Z,9.10
2018-07-21T04:53:36.590Z,8.90
2018-07-21T04:56:05.864Z,9.13
2018-07-21T04:58:34.024Z,9.10
2018-07-21T05:01:02.728Z,9.10
2018-07-21T05:03:30.866Z,9.93
2018-07-21T05:05:59.340Z,9.27
2018-07-21T05:08:27.828Z,10.10
2018-07-21T05:10:56.040Z,9.07
2018-07-21T05:13:24.298Z,9.73
2018-07-21T05:15:53.742Z,8.80
2018-07-21T05:18:23.076Z,7.93
2018-07-21T05:20:51.383Z,9.60
2018-07-21T05:23:20.716Z,10.30
2018-07-21T05:25:48.852Z,8.23
2018-07-21T05:28:17.014Z,9.47
2018-07-21T05:30:45.812Z,10.47
2018-07-21T05:33:14.231Z,9.43
2018-07-21T05:35:44.316Z,9.63
2018-07-21T05:38:13.396Z,9.63
2018-07-21T05:40:42.273Z,9.13
2018-07-21T05:43:11.548Z,10.40
2018-07-21T05:45:41.072Z,8.90
2018-07-21T05:48:09.229Z,9.10
2018-07-21T05:50:38.324Z,9.33
2018-07-21T05:53:06.497Z,10.27
2018-07-21T05:55:34.652Z,8.80
2018-07-21T05:58:02.800Z,9.03
2018-07-21T06:00:31.661Z,10.03
2018-07-21T06:02:59.874Z,8.80
2018-07-21T06:05:28.012Z,9.23
2018-07-21T06:07:56.602Z,9.40
2018-07-21T06:10:25.236Z,8.70
2018-07-21T06:12:53.403Z,10.00
2018-07-21T06:15:22.272Z,8.90
2018-07-21T06:17:51.121Z,8.97
2018-07-21T06:20:20.173Z,9.07
2018-07-21T06:22:48.352Z,8.50
2018-07-21T06:25:16.528Z,8.20
2018-07-21T06:27:44.672Z,7.57
2018-07-21T06:30:13.294Z,7.23
2018-07-21T06:32:41.854Z,6.77
2018-07-21T06:35:10.025Z,8.47
2018-07-21T06:37:38.172Z,7.17
2018-07-21T06:40:07.233Z,7.30
2018-07-21T06:42:35.739Z,6.70
2018-07-21T06:45:04.332Z,7.33
2018-07-21T06:47:32.859Z,6.90
2018-07-21T06:50:02.085Z,6.30
2018-07-21T06:52:31.704Z,5.80
2018-07-21T06:55:00.900Z,6.30
2018-07-21T06:57:29.300Z,5.83
2018-07-21T06:59:58.369Z,6.47
2018-07-21T07:02:27.319Z,6.03
2018-07-21T07:04:55.433Z,6.97
2018-07-21T07:07:25.652Z,4.37
2018-07-21T07:09:53.836Z,5.13
2018-07-21T07:12:22.452Z,5.17
2018-07-21T07:14:51.202Z,5.00
2018-07-21T07:17:19.676Z,5.77
2018-07-21T07:19:47.820Z,5.23
2018-07-21T07:22:15.967Z,5.23
2018-07-21T07:24:44.689Z,5.10
2018-07-21T07:27:13.301Z,7.13
2018-07-21T07:29:41.728Z,4.80
2018-07-21T07:32:10.248Z,5.37
2018-07-21T07:34:38.792Z,4.80
2018-07-21T07:37:08.092Z,4.17
2018-07-21T07:39:36.300Z,4.40
2018-07-21T07:42:05.183Z,4.57
2018-07-21T07:44:34.308Z,5.00
2018-07-21T07:47:02.760Z,4.10
2018-07-21T07:49:30.896Z,4.50
2018-07-21T07:51:59.083Z,4.57
2018-07-21T07:54:27.209Z,3.87
2018-07-21T07:56:55.382Z,4.40
2018-07-21T07:59:23.560Z,4.17
2018-07-21T08:01:51.764Z,4.00
2018-07-21T08:04:20.471Z,4.47
2018-07-21T08:06:49.255Z,4.10
2018-07-21T08:09:17.436Z,4.27
2018-07-21T08:11:47.132Z,4.10
2018-07-21T08:14:15.313Z,3.67
2018-07-21T08:16:43.447Z,7.13
2018-07-21T08:19:11.592Z,4.60
2018-07-21T08:21:39.746Z,4.57
2018-07-21T08:24:08.900Z,3.73
2018-07-21T08:26:37.988Z,4.30
2018-07-21T08:29:07.558Z,4.50
2018-07-21T08:31:36.135Z,4.40
2018-07-21T08:34:04.499Z,5.00
2018-07-21T08:36:32.641Z,4.60
2018-07-21T08:39:00.760Z,4.20
2018-07-21T08:41:28.903Z,4.03
2018-07-21T08:43:57.084Z,4.77
2018-07-21T08:46:26.336Z,4.90
2018-07-21T08:48:54.492Z,4.37
2018-07-21T08:51:23.152Z,3.70
2018-07-21T08:53:51.344Z,4.53
2018-07-21T08:56:19.816Z,5.50
2018-07-21T08:58:48.008Z,4.53
2018-07-21T09:01:18.699Z,4.73
2018-07-21T09:03:49.086Z,4.00
2018-07-21T09:06:17.332Z,4.60
2018-07-21T09:08:45.476Z,4.23
2018-07-21T09:11:13.662Z,4.10
2018-07-21T09:13:43.600Z,4.17
2018-07-21T09:16:11.895Z,3.93
2018-07-21T09:18:40.633Z,4.10
2018-07-21T09:21:09.703Z,4.13
2018-07-21T09:23:38.209Z,4.70
2018-07-21T09:26:07.164Z,3.97
2018-07-21T09:28:36.347Z,4.73
2018-07-21T09:31:04.559Z,4.33
2018-07-21T09:33:33.102Z,8.00
2018-07-21T09:36:01.307Z,4.50
2018-07-21T09:38:29.477Z,4.43
2018-07-21T09:40:57.589Z,4.53
2018-07-21T09:43:25.765Z,4.47
2018-07-21T09:45:57.502Z,4.20
2018-07-21T09:48:27.115Z,5.33
2018-07-21T09:50:56.288Z,5.77
2018-07-21T09:53:25.512Z,4.70
2018-07-21T09:55:54.621Z,4.97
2018-07-21T09:58:24.896Z,4.80
2018-07-21T10:00:59.575Z,5.30
2018-07-21T10:03:28.884Z,5.03
2018-07-21T10:05:57.028Z,6.27
2018-07-21T10:08:25.532Z,4.93
2018-07-21T10:10:54.656Z,6.10
2018-07-21T10:13:23.587Z,5.63
2018-07-21T10:15:51.752Z,5.47
2018-07-21T10:18:21.121Z,6.33
2018-07-21T10:20:49.691Z,5.77
2018-07-21T10:23:18.196Z,5.60
2018-07-21T10:25:51.715Z,5.80
2018-07-21T10:28:25.524Z,5.23
2018-07-21T10:30:53.636Z,6.03
2018-07-21T10:33:21.772Z,6.30
2018-07-21T10:35:49.957Z,7.03
2018-07-21T10:38:19.200Z,7.10
2018-07-21T10:40:47.360Z,7.27
2018-07-21T10:43:16.679Z,8.03
2018-07-21T10:45:44.824Z,6.90
2018-07-21T10:48:15.030Z,7.93
2018-07-21T10:50:43.294Z,8.20
2018-07-21T10:53:12.429Z,8.07
2018-07-21T10:55:40.845Z,7.83
2018-07-21T10:58:08.964Z,7.70
2018-07-21T11:00:37.104Z,8.27
2018-07-21T11:03:07.000Z,8.53
2018-07-21T11:05:35.229Z,8.30
2018-07-21T11:08:05.405Z,8.00
2018-07-21T11:10:33.548Z,8.23
2018-07-21T11:13:03.120Z,8.33
2018-07-21T11:15:31.719Z,8.10
2018-07-21T11:18:00.417Z,7.90
2018-07-21T11:20:28.580Z,8.13
2018-07-21T11:22:57.404Z,8.00
2018-07-21T11:25:25.808Z,7.57
2018-07-21T11:27:54.376Z,7.83
2018-07-21T11:30:24.459Z,8.37
2018-07-21T11:32:52.613Z,8.20
2018-07-21T11:35:21.358Z,7.70
2018-07-21T11:37:50.024Z,7.50
2018-07-21T11:43:11.458Z,8.20
2018-07-21T11:45:49.648Z,8.83
2018-07-21T11:48:18.711Z,8.73
2018-07-21T11:50:48.916Z,8.20
2018-07-21T11:53:17.088Z,8.30
2018-07-21T11:55:45.284Z,8.37
2018-07-21T11:58:14.116Z,8.67
2018-07-21T12:00:42.831Z,7.83
2018-07-21T12:03:11.019Z,8.50
2018-07-21T12:05:39.283Z,9.13
2018-07-21T12:08:08.088Z,8.43
2018-07-21T12:10:36.308Z,8.93
2018-07-21T12:13:04.597Z,8.70
2018-07-21T12:15:32.744Z,8.30
2018-07-21T12:18:01.006Z,9.00
2018-07-21T12:20:29.416Z,8.50
2018-07-21T12:22:58.033Z,8.53
2018-07-21T12:25:26.946Z,10.47
2018-07-21T12:27:56.485Z,9.33
2018-07-21T12:30:25.296Z,10.43
2018-07-21T12:32:54.474Z,7.73
2018-07-21T12:35:22.836Z,9.87
2018-07-21T12:37:53.071Z,9.83
2018-07-21T12:40:22.724Z,9.00
2018-07-21T12:42:50.937Z,10.07
2018-07-21T12:45:20.667Z,10.00
2018-07-21T12:47:50.440Z,10.37
2018-07-21T12:50:18.589Z,9.23
2018-07-21T12:52:47.366Z,9.97
2018-07-21T12:55:15.548Z,10.03
2018-07-21T12:57:43.796Z,10.97
2018-07-21T13:00:14.023Z,10.50
2018-07-21T13:02:42.817Z,10.33
2018-07-21T13:05:11.832Z,11.93
2018-07-21T13:07:40.014Z,11.10
2018-07-21T13:10:08.169Z,10.63
2018-07-21T13:12:36.904Z,10.50
2018-07-21T13:15:05.800Z,9.67
2018-07-21T13:17:34.890Z,10.57
2018-07-21T13:20:03.556Z,8.80
2018-07-21T13:22:31.729Z,10.80
2018-07-21T13:24:59.896Z,9.07
2018-07-21T13:27:28.072Z,9.83
2018-07-21T13:29:56.512Z,10.93
2018-07-21T13:32:24.949Z,10.30
2018-07-21T13:34:53.410Z,9.60
2018-07-21T13:37:21.887Z,9.03
2018-07-21T13:39:50.566Z,10.33
2018-07-21T13:42:20.766Z,10.10
2018-07-21T13:44:49.293Z,10.13
2018-07-21T13:47:18.240Z,10.17
2018-07-21T13:49:46.436Z,10.20
2018-07-21T13:52:14.664Z,8.60
2018-07-21T13:54:42.980Z,9.27
2018-07-21T13:57:11.148Z,8.40
2018-07-21T13:59:39.362Z,8.87
2018-07-21T14:02:08.207Z,9.43
2018-07-21T14:04:36.340Z,7.97
2018-07-21T14:07:04.934Z,9.37
2018-07-21T14:09:33.085Z,9.60
2018-07-21T14:12:01.720Z,9.17
2018-07-21T14:14:29.849Z,12.83
2018-07-21T14:16:59.368Z,9.40
2018-07-21T14:19:27.492Z,10.17
2018-07-21T14:21:56.381Z,10.20
2018-07-21T14:24:24.621Z,9.47
2018-07-21T14:26:52.764Z,10.20
2018-07-21T14:29:21.492Z,8.67
2018-07-21T14:31:50.456Z,9.30
2018-07-21T14:34:18.596Z,10.33
2018-07-21T14:36:46.840Z,10.77
2018-07-21T14:39:15.260Z,10.40
2018-07-21T14:41:43.550Z,11.77
2018-07-21T14:44:11.712Z,9.10
2018-07-21T14:46:41.612Z,9.67
2018-07-21T14:49:09.812Z,9.90
2018-07-21T14:51:37.968Z,10.80
2018-07-21T14:54:06.132Z,9.90
2018-07-21T14:56:35.298Z,9.80
2018-07-21T14:59:04.496Z,10.10
2018-07-21T15:01:32.704Z,9.30
2018-07-21T15:04:01.222Z,10.30
2018-07-21T15:06:31.260Z,11.27
2018-07-21T15:09:00.042Z,10.60
2018-07-21T15:11:28.440Z,11.00
2018-07-21T15:13:57.327Z,10.10
2018-07-21T15:16:25.476Z,10.13
2018-07-21T15:18:53.620Z,9.87
2018-07-21T15:21:22.437Z,10.00
2018-07-21T15:23:50.607Z,9.63
2018-07-21T15:26:19.488Z,9.50
2018-07-21T15:28:47.913Z,8.93
2018-07-21T15:31:16.050Z,8.33
2018-07-21T15:33:44.199Z,9.77
2018-07-21T15:36:12.328Z,9.60
2018-07-21T15:38:40.552Z,9.53
2018-07-21T15:41:09.748Z,9.03
2018-07-21T15:43:38.461Z,9.40
2018-07-21T15:46:07.301Z,9.93
2018-07-21T15:48:36.141Z,9.20
2018-07-21T15:51:04.304Z,8.60
2018-07-21T15:53:32.452Z,9.53
2018-07-21T15:56:00.629Z,9.47
2018-07-21T15:58:28.801Z,9.10
2018-07-21T16:00:58.996Z,9.70
2018-07-21T16:03:27.151Z,8.63
2018-07-21T16:05:55.533Z,8.83
2018-07-21T16:08:24.240Z,8.60
2018-07-21T16:10:52.464Z,8.00
2018-07-21T16:13:20.876Z,8.27
2018-07-21T16:15:49.044Z,8.23
2018-07-21T16:18:17.700Z,9.10
2018-07-21T16:20:46.352Z,8.53
2018-07-21T16:23:14.513Z,8.63
2018-07-21T16:25:42.749Z,8.70
2018-07-21T16:28:10.932Z,8.37
2018-07-21T16:30:39.753Z,8.20
2018-07-21T16:33:07.840Z,8.33
2018-07-21T16:35:35.993Z,8.60
2018-07-21T16:38:05.107Z,10.23
2018-07-21T16:40:34.092Z,9.67
2018-07-21T16:43:03.132Z,9.20
2018-07-21T16:45:31.310Z,8.87
2018-07-21T16:48:00.135Z,9.70
2018-07-21T16:50:28.291Z,9.20
2018-07-21T16:52:56.417Z,9.50
2018-07-21T16:55:25.502Z,10.47
2018-07-21T16:57:53.989Z,9.17
2018-07-21T17:00:22.460Z,8.20
2018-07-21T17:02:50.600Z,7.33
2018-07-21T17:05:18.716Z,7.57
2018-07-21T17:07:46.880Z,7.60
2018-07-21T17:10:15.033Z,7.00
2018-07-21T17:12:43.236Z,6.87
2018-07-21T17:15:11.404Z,7.20
2018-07-21T17:17:40.200Z,6.27
2018-07-21T17:20:08.694Z,7.10
2018-07-21T17:22:38.087Z,6.10
2018-07-21T17:25:06.240Z,7.70
2018-07-21T17:27:35.844Z,6.60
2018-07-21T17:30:04.086Z,6.30
2018-07-21T17:32:33.240Z,6.03
2018-07-21T17:35:02.768Z,6.10
2018-07-21T17:37:31.478Z,6.57
2018-07-21T17:39:59.623Z,6.00
2018-07-21T17:42:28.040Z,6.50
2018-07-21T17:44:56.545Z,6.33
2018-07-21T17:47:25.300Z,6.20
2018-07-21T17:49:53.710Z,6.80
2018-07-21T17:52:22.180Z,5.80
2018-07-21T17:54:51.172Z,7.10
2018-07-21T17:57:19.625Z,6.00
2018-07-21T17:59:47.764Z,5.80
2018-07-21T18:02:15.900Z,4.97
2018-07-21T18:04:44.788Z,5.80
2018-07-21T18:07:13.473Z,5.73
2018-07-21T18:09:41.651Z,5.80
2018-07-21T18:12:09.804Z,6.10
2018-07-21T18:14:39.307Z,6.60
2018-07-21T18:17:08.252Z,6.57
2018-07-21T18:19:36.414Z,6.03
2018-07-21T18:22:04.901Z,7.13
2018-07-21T18:24:33.844Z,8.30
2018-07-21T18:27:02.636Z,6.87
2018-07-21T18:29:31.116Z,7.97
2018-07-21T18:31:59.512Z,8.20
2018-07-21T18:34:29.018Z,9.07
2018-07-21T18:36:57.889Z,8.50
2018-07-21T18:39:26.019Z,9.30
2018-07-21T18:41:54.180Z,8.03
2018-07-21T18:44:22.803Z,8.37
2018-07-21T18:46:51.575Z,9.67
2018-07-21T18:49:19.782Z,9.30
2018-07-21T18:51:48.413Z,9.40
2018-07-21T18:54:16.619Z,8.40
2018-07-21T18:56:44.812Z,10.03
2018-07-21T18:59:15.093Z,9.43
2018-07-21T19:01:43.624Z,9.83
2018-07-21T19:04:11.816Z,10.30
2018-07-21T19:06:39.960Z,9.20
2018-07-21T19:09:09.513Z,10.50
2018-07-21T19:11:40.020Z,12.17
2018-07-21T19:14:08.186Z,10.87
2018-07-21T19:16:39.780Z,11.53
2018-07-21T19:19:08.247Z,10.30
2018-07-21T19:21:37.384Z,10.83
2018-07-21T19:24:05.560Z,10.83
2018-07-21T19:26:39.554Z,14.60
2018-07-21T19:29:07.744Z,12.37
2018-07-21T19:31:36.246Z,12.50
2018-07-21T19:34:04.909Z,12.33
2018-07-21T19:36:33.112Z,12.23
2018-07-21T19:39:01.246Z,11.27
2018-07-21T19:41:35.014Z,13.30
2018-07-21T19:44:03.937Z,12.77
2018-07-21T19:46:32.585Z,13.93
2018-07-21T19:49:01.084Z,14.10
2018-07-21T19:51:30.068Z,13.73
2018-07-21T19:53:58.194Z,13.90
2018-07-21T19:56:26.848Z,14.57
2018-07-21T19:58:55.047Z,12.80
2018-07-21T20:01:23.779Z,15.03
2018-07-21T20:03:52.856Z,15.10
2018-07-21T20:06:22.963Z,15.87
2018-07-21T20:08:51.557Z,16.67
2018-07-21T20:11:20.630Z,16.27
2018-07-21T20:13:49.530Z,16.13
2018-07-21T20:16:17.641Z,14.33
2018-07-21T20:18:46.313Z,16.20
2018-07-21T20:21:14.578Z,15.77
2018-07-21T20:23:42.674Z,13.83
2018-07-21T20:26:12.453Z,16.80
2018-07-21T20:28:40.609Z,14.80
2018-07-21T20:31:09.389Z,17.07
2018-07-21T20:33:37.538Z,19.37
2018-07-21T20:36:06.168Z,17.77
2018-07-21T20:38:34.304Z,19.00
2018-07-21T20:41:02.485Z,18.37
2018-07-21T20:43:31.880Z,18.93
2018-07-21T20:46:01.768Z,17.57
2018-07-21T20:48:29.968Z,18.30
2018-07-21T20:51:00.257Z,17.63
2018-07-21T20:53:28.433Z,18.33
2018-07-21T20:55:56.601Z,17.70
2018-07-21T20:58:24.785Z,17.60
2018-07-21T21:00:54.220Z,19.80
2018-07-21T21:03:22.380Z,19.60
2018-07-21T21:05:51.037Z,18.30
2018-07-21T21:08:19.224Z,19.70
2018-07-21T21:10:47.464Z,16.60
2018-07-21T21:13:15.636Z,15.47
2018-07-21T21:15:43.804Z,16.37
2018-07-21T21:18:15.493Z,16.37
2018-07-21T21:20:43.682Z,17.67
2018-07-21T21:23:11.920Z,16.43
2018-07-21T21:25:40.828Z,17.40
2018-07-21T21:28:08.980Z,18.03
2018-07-21T21:30:37.103Z,20.10
2018-07-21T21:33:05.412Z,20.17
2018-07-21T21:35:33.607Z,20.23
2018-07-21T21:38:02.633Z,19.27
2018-07-21T21:40:31.486Z,16.20
2018-07-21T21:43:00.612Z,15.00
2018-07-21T21:45:28.811Z,16.27
2018-07-21T21:47:57.044Z,16.03
2018-07-21T21:50:25.732Z,16.50
2018-07-21T21:52:53.897Z,15.50
2018-07-21T21:55:23.498Z,14.93
2018-07-21T21:57:53.623Z,15.73
2018-07-21T22:00:25.818Z,20.27
2018-07-21T22:02:54.688Z,20.97
2018-07-21T22:05:23.160Z,17.30
2018-07-21T22:07:51.331Z,16.47
2018-07-21T22:10:19.979Z,16.63
2018-07-21T22:12:49.186Z,16.00
2018-07-21T22:15:21.542Z,16.80
2018-07-21T22:17:50.936Z,18.47
2018-07-21T22:20:19.136Z,18.10
2018-07-21T22:22:47.343Z,17.53
2018-07-21T22:25:15.515Z,18.20
2018-07-21T22:27:44.773Z,15.83
2018-07-21T22:30:20.396Z,20.40
2018-07-21T22:32:49.197Z,18.43
2018-07-21T22:35:18.103Z,21.00
2018-07-21T22:37:46.260Z,20.53
2018-07-21T22:40:15.661Z,20.40
2018-07-21T22:42:43.802Z,19.03
2018-07-21T22:45:12.792Z,20.77
2018-07-21T22:47:41.225Z,20.03
2018-07-21T22:50:09.660Z,20.20
2018-07-21T22:52:37.859Z,18.70
2018-07-21T22:55:06.360Z,19.70
2018-07-21T22:57:34.531Z,19.10
2018-07-21T23:00:03.927Z,20.50
2018-07-21T23:02:32.072Z,21.50
2018-07-21T23:05:00.740Z,23.17
2018-07-21T23:07:28.927Z,24.17
2018-07-21T23:09:57.166Z,24.63
2018-07-21T23:12:25.321Z,24.53
2018-07-21T23:14:54.392Z,24.93
2018-07-21T23:17:22.564Z,27.30
2018-07-21T23:19:52.214Z,26.70
2018-07-21T23:22:20.323Z,24.50
2018-07-21T23:24:49.276Z,23.67
2018-07-21T23:27:19.560Z,24.13
2018-07-21T23:29:47.725Z,25.57
2018-07-21T23:32:16.322Z,22.50
2018-07-21T23:34:45.681Z,22.40
2018-07-21T23:37:14.975Z,23.03
2018-07-21T23:39:43.100Z,25.60
2018-07-21T23:42:11.296Z,27.33
2018-07-21T23:44:39.434Z,25.57
2018-07-21T23:47:08.643Z,24.27
2018-07-21T23:49:36.798Z,25.43
2018-07-21T23:52:05.801Z,25.17
2018-07-21T23:54:34.769Z,24.40
2018-07-21T23:57:03.543Z,24.20
2018-07-21T23:59:32.740Z,25.93
